Time;durP1;ratioP1;P1;durP2;ratioP2;P2;SDS_P1;SDS_P2;PMS_P1;PMS_P2;Temp;Humidity;BMP_temperature;BMP_pressure;BME280_temperature;BME280_humidity;BME280_pressure;Samples;Min_cycle;Max_cycle;Signal;HPM_P1;HPM_P2
2021/04/22 00:02:03;;;;;;;;;;;;;;;;;;4935391;29;20264;-53
2021/04/22 00:04:28;;;;;;;;;;;;;;;;;;4934345;29;19976;-55
2021/04/22 00:06:53;;;;;;;;;;;;;;;;;;4934397;29;19923;-54
2021/04/22 00:09:19;;;;;;;;;;;;;;;;;;4934799;29;20371;-55
2021/04/22 00:11:44;;;;;;;;;;;;;;;;;;4933130;29;19925;-53
2021/04/22 00:14:09;;;;;;;;;;;;;;;;;;4933596;29;20251;-56
2021/04/22 00:16:34;;;;;;;;;;;;;;;;;;4934768;29;20398;-56
2021/04/22 00:18:59;;;;;;;;;;;;;;;;;;4918001;29;20343;-56
2021/04/22 00:21:25;;;;;;;;;;;;;;;;;;4934046;29;19921;-54
2021/04/22 00:23:50;;;;;;;;;;;;;;;;;;4934861;28;20013;-55
2021/04/22 00:26:15;;;;;;;;;;;;;;;;;;4934791;29;20242;-53
2021/04/22 00:28:40;;;;;;;;;;;;;;;;;;4931371;29;20395;-54
2021/04/22 00:31:06;;;;;;;;;;;;;;;;;;4928965;29;20439;-54
2021/04/22 00:33:31;;;;;;;;;;;;;;;;;;4933213;29;19966;-56
2021/04/22 00:35:56;;;;;;;;;;;;;;;;;;4920378;29;20285;-53
2021/04/22 00:38:21;;;;;;;;;;;;;;;;;;4915721;29;19911;-52
2021/04/22 00:40:47;;;;;;;;;;;;;;;;;;4914820;29;20312;-54
2021/04/22 00:43:12;;;;;;;;;;;;;;;;;;4917588;29;19922;-55
2021/04/22 00:45:38;;;;;;;;;;;;;;;;;;4927616;29;20263;-54
2021/04/22 00:48:03;;;;;;;;;;;;;;;;;;4939124;29;19926;-53
2021/04/22 00:50:28;;;;;;;;;;;;;;;;;;4938453;29;19914;-56
2021/04/22 00:52:53;;;;;;;;;;;;;;;;;;4939353;29;19911;-54
2021/04/22 00:55:19;;;;;;;;;;;;;;;;;;4938046;29;19917;-55
2021/04/22 00:57:44;;;;;;;;;;;;;;;;;;4938127;29;19913;-56
2021/04/22 01:00:09;;;;;;;;;;;;;;;;;;4937089;29;20267;-56
2021/04/22 01:02:34;;;;;;;;;;;;;;;;;;4938183;29;20001;-55
2021/04/22 01:05:00;;;;;;;;;;;;;;;;;;4937994;29;20361;-53
2021/04/22 01:07:25;;;;;;;;;;;;;;;;;;4939812;29;20426;-55
2021/04/22 01:09:50;;;;;;;;;;;;;;;;;;4938827;29;20252;-55
2021/04/22 01:12:15;;;;;;;;;;;;;;;;;;4938430;29;19929;-56
2021/04/22 01:14:41;;;;;;;;;;;;;;;;;;4938600;29;20013;-56
2021/04/22 01:17:06;;;;;;;;;;;;;;;;;;4921643;29;19918;-56
2021/04/22 01:19:31;;;;;;;;;;;;;;;;;;4936870;29;19911;-55
2021/04/22 01:21:56;;;;;;;;;;;;;;;;;;4941120;29;20367;-52
2021/04/22 01:24:21;;;;;;;;;;;;;;;;;;4940806;29;20336;-51
2021/04/22 01:26:47;;;;;;;;;;;;;;;;;;4921899;29;19919;-53
2021/04/22 01:29:12;;;;;;;;;;;;;;;;;;4937889;29;19911;-54
2021/04/22 01:31:37;;;;;;;;;;;;;;;;;;4936725;29;19907;-51
2021/04/22 01:34:02;;;;;;;;;;;;;;;;;;4936505;29;19921;-52
2021/04/22 01:36:27;;;;;;;;;;;;;;;;;;4939288;29;19954;-51
2021/04/22 01:38:53;;;;;;;;;;;;;;;;;;4939090;29;19953;-52
2021/04/22 01:41:18;;;;;;;;;;;;;;;;;;4921150;29;19962;-52
2021/04/22 01:43:43;;;;;;;;;;;;;;;;;;4937451;29;19911;-53
2021/04/22 01:46:08;;;;;;;;;;;;;;;;;;4936952;29;19921;-54
2021/04/22 01:48:34;;;;;;;;;;;;;;;;;;4937735;29;19918;-51
2021/04/22 01:51:00;;;;;;;;;;;;;;;;;;4936362;29;19918;-54
2021/04/22 01:53:25;;;;;;;;;;;;;;;;;;4936910;29;19937;-52
2021/04/22 01:55:51;;;;;;;;;;;;;;;;;;4936616;29;20205;-55
2021/04/22 01:58:16;;;;;;;;;;;;;;;;;;4937216;29;20326;-53
2021/04/22 02:00:41;;;;;;;;;;;;;;;;;;4936311;29;19914;-55
2021/04/22 02:03:06;;;;;;;;;;;;;;;;;;4936132;29;19917;-54
2021/04/22 02:05:32;;;;;;;;;;;;;;;;;;4936348;29;19926;-54
2021/04/22 02:07:57;;;;;;;;;;;;;;;;;;4936003;29;20021;-54
2021/04/22 02:10:22;;;;;;;;;;;;;;;;;;4937267;29;19911;-55
2021/04/22 02:12:47;;;;;;;;;;;;;;;;;;4935887;29;19939;-55
2021/04/22 02:15:12;;;;;;;;;;;;;;;;;;4920235;29;19911;-55
2021/04/22 02:17:38;;;;;;;;;;;;;;;;;;4937603;29;19970;-53
2021/04/22 02:20:03;;;;;;;;;;;;;;;;;;4936844;29;19907;-55
2021/04/22 02:22:28;;;;;;;;;;;;;;;;;;4936968;29;19957;-54
2021/04/22 02:24:53;;;;;;;;;;;;;;;;;;4919930;29;19918;-54
2021/04/22 02:27:19;;;;;;;;;;;;;;;;;;4935947;29;20017;-56
2021/04/22 02:29:44;;;;;;;;;;;;;;;;;;4934921;29;20046;-54
2021/04/22 02:32:09;;;;;;;;;;;;;;;;;;4934668;29;19950;-53
2021/04/22 02:34:34;;;;;;;;;;;;;;;;;;4934658;29;19964;-54
2021/04/22 02:37:00;;;;;;;;;;;;;;;;;;4936003;29;19911;-54
2021/04/22 02:39:25;;;;;;;;;;;;;;;;;;4935828;29;19911;-54
2021/04/22 02:41:50;;;;;;;;;;;;;;;;;;4935037;29;20010;-54
2021/04/22 02:44:15;;;;;;;;;;;;;;;;;;4935829;29;19920;-53
2021/04/22 02:46:41;;;;;;;;;;;;;;;;;;4935734;29;19918;-56
2021/04/22 02:49:06;;;;;;;;;;;;;;;;;;4934323;29;20434;-55
2021/04/22 02:51:31;;;;;;;;;;;;;;;;;;4935773;29;19911;-54
2021/04/22 02:53:56;;;;;;;;;;;;;;;;;;4935673;29;20286;-56
2021/04/22 02:56:21;;;;;;;;;;;;;;;;;;4936420;29;20315;-55
2021/04/22 02:58:47;;;;;;;;;;;;;;;;;;4935524;29;20371;-55
2021/04/22 03:01:12;;;;;;;;;;;;;;;;;;4934800;29;20426;-54
2021/04/22 03:03:37;;;;;;;;;;;;;;;;;;4935741;29;19910;-54
2021/04/22 03:06:02;;;;;;;;;;;;;;;;;;4934891;29;19981;-54
2021/04/22 03:08:28;;;;;;;;;;;;;;;;;;4934195;29;19942;-54
2021/04/22 03:10:53;;;;;;;;;;;;;;;;;;4935162;29;19925;-58
2021/04/22 03:13:18;;;;;;;;;;;;;;;;;;4934995;29;19918;-54
2021/04/22 03:15:43;;;;;;;;;;;;;;;;;;4935726;29;20245;-55
2021/04/22 03:18:09;;;;;;;;;;;;;;;;;;4935368;29;19911;-55
2021/04/22 03:20:34;;;;;;;;;;;;;;;;;;4935232;29;19998;-55
2021/04/22 03:22:59;;;;;;;;;;;;;;;;;;4917913;29;20351;-54
2021/04/22 03:25:24;;;;;;;;;;;;;;;;;;4935285;29;20308;-55
2021/04/22 03:27:49;;;;;;;;;;;;;;;;;;4934753;29;20366;-54
2021/04/22 03:30:15;;;;;;;;;;;;;;;;;;4935119;29;19911;-55
2021/04/22 03:32:40;;;;;;;;;;;;;;;;;;4935464;29;20360;-55
2021/04/22 03:35:05;;;;;;;;;;;;;;;;;;4933761;29;19958;-56
2021/04/22 03:37:30;;;;;;;;;;;;;;;;;;4935770;29;20348;-54
2021/04/22 03:39:56;;;;;;;;;;;;;;;;;;4934917;29;20414;-57
2021/04/22 03:42:21;;;;;;;;;;;;;;;;;;4935212;29;20355;-53
2021/04/22 03:44:46;;;;;;;;;;;;;;;;;;4934819;29;20375;-55
2021/04/22 03:47:11;;;;;;;;;;;;;;;;;;4934748;29;19925;-56
2021/04/22 03:49:37;;;;;;;;;;;;;;;;;;4935089;29;19929;-56
2021/04/22 03:52:02;;;;;;;;;;;;;;;;;;4935077;29;19917;-55
2021/04/22 03:54:27;;;;;;;;;;;;;;;;;;4935377;29;20394;-55
2021/04/22 03:56:52;;;;;;;;;;;;;;;;;;4935218;29;19950;-54
2021/04/22 03:59:18;;;;;;;;;;;;;;;;;;4933477;29;20362;-55
2021/04/22 04:01:43;;;;;;;;;;;;;;;;;;4933830;29;19984;-56
2021/04/22 04:04:08;;;;;;;;;;;;;;;;;;4934499;29;20046;-57
2021/04/22 04:06:34;;;;;;;;;;;;;;;;;;4934864;29;20013;-55
2021/04/22 04:08:59;;;;;;;;;;;;;;;;;;4934623;29;19926;-53
2021/04/22 04:11:25;;;;;;;;;;;;;;;;;;4933722;29;19922;-54
2021/04/22 04:13:50;;;;;;;;;;;;;;;;;;4934926;29;19911;-56
2021/04/22 04:16:15;;;;;;;;;;;;;;;;;;4936370;29;19911;-54
2021/04/22 04:18:40;;;;;;;;;;;;;;;;;;4937087;29;19998;-55
2021/04/22 04:21:05;;;;;;;;;;;;;;;;;;4936873;29;19914;-55
2021/04/22 04:23:31;;;;;;;;;;;;;;;;;;4938991;29;19910;-54
2021/04/22 04:25:56;;;;;;;;;;;;;;;;;;4938404;29;19914;-54
2021/04/22 04:28:21;;;;;;;;;;;;;;;;;;4938436;29;19918;-53
2021/04/22 04:30:46;;;;;;;;;;;;;;;;;;4938595;29;19917;-54
2021/04/22 04:33:12;;;;;;;;;;;;;;;;;;4936968;29;19910;-55
2021/04/22 04:35:37;;;;;;;;;;;;;;;;;;4937951;29;19918;-56
2021/04/22 04:38:02;;;;;;;;;;;;;;;;;;4937993;29;19913;-54
2021/04/22 04:40:27;;;;;;;;;;;;;;;;;;4938122;29;20009;-55
2021/04/22 04:42:54;;;;;;;;;;;;;;;;;;4938084;29;19911;-57
2021/04/22 04:45:19;;;;;;;;;;;;;;;;;;4938088;29;19970;-56
2021/04/22 04:47:44;;;;;;;;;;;;;;;;;;4937970;29;19929;-57
2021/04/22 04:50:10;;;;;;;;;;;;;;;;;;4938180;29;19917;-55
2021/04/22 04:52:35;;;;;;;;;;;;;;;;;;4937857;29;19914;-55
2021/04/22 04:55:00;;;;;;;;;;;;;;;;;;4938027;29;19914;-55
2021/04/22 04:57:25;;;;;;;;;;;;;;;;;;4935832;29;20001;-54
2021/04/22 04:59:50;;;;;;;;;;;;;;;;;;4936616;29;19911;-55
2021/04/22 05:02:16;;;;;;;;;;;;;;;;;;4936214;29;19914;-56
2021/04/22 05:04:41;;;;;;;;;;;;;;;;;;4937976;29;19965;-56
2021/04/22 05:07:06;;;;;;;;;;;;;;;;;;4937694;29;19950;-54
2021/04/22 05:09:31;;;;;;;;;;;;;;;;;;4937773;29;19910;-56
2021/04/22 05:11:57;;;;;;;;;;;;;;;;;;4937878;29;19919;-55
2021/04/22 05:14:22;;;;;;;;;;;;;;;;;;4937293;29;19910;-56
2021/04/22 05:16:47;;;;;;;;;;;;;;;;;;4937462;29;20002;-57
2021/04/22 05:19:12;;;;;;;;;;;;;;;;;;4937241;29;20016;-57
2021/04/22 05:21:37;;;;;;;;;;;;;;;;;;4936355;29;19907;-56
2021/04/22 05:24:03;;;;;;;;;;;;;;;;;;4920717;29;19911;-56
2021/04/22 05:26:28;;;;;;;;;;;;;;;;;;4937791;29;20324;-54
2021/04/22 05:28:55;;;;;;;;;;;;;;;;;;4936503;29;19998;-54
2021/04/22 05:31:21;;;;;;;;;;;;;;;;;;4936886;29;19974;-54
2021/04/22 05:33:46;;;;;;;;;;;;;;;;;;4936944;29;19915;-55
2021/04/22 05:36:11;;;;;;;;;;;;;;;;;;4936634;29;19911;-54
2021/04/22 05:38:37;;;;;;;;;;;;;;;;;;4936342;29;20344;-53
2021/04/22 05:41:03;;;;;;;;;;;;;;;;;;4937292;29;19917;-54
2021/04/22 05:43:28;;;;;;;;;;;;;;;;;;4937013;29;20005;-53
2021/04/22 05:45:53;;;;;;;;;;;;;;;;;;4936229;29;20373;-51
2021/04/22 05:48:18;;;;;;;;;;;;;;;;;;4936738;29;20017;-54
2021/04/22 05:50:43;;;;;;;;;;;;;;;;;;4935799;29;20319;-54
2021/04/22 05:53:09;;;;;;;;;;;;;;;;;;4936932;29;20013;-56
2021/04/22 05:55:34;;;;;;;;;;;;;;;;;;4935859;29;19918;-55
2021/04/22 05:57:59;;;;;;;;;;;;;;;;;;4935698;29;19911;-54
2021/04/22 06:00:24;;;;;;;;;;;;;;;;;;4934965;29;19957;-55
2021/04/22 06:02:50;;;;;;;;;;;;;;;;;;4936573;29;19993;-53
2021/04/22 06:05:16;;;;;;;;;;;;;;;;;;4934960;29;20005;-52
2021/04/22 06:07:41;;;;;;;;;;;;;;;;;;4936482;29;19919;-54
2021/04/22 06:10:06;;;;;;;;;;;;;;;;;;4935096;29;19914;-54
2021/04/22 06:12:31;;;;;;;;;;;;;;;;;;4934742;29;19966;-56
2021/04/22 06:14:57;;;;;;;;;;;;;;;;;;4936864;29;20385;-55
2021/04/22 06:17:22;;;;;;;;;;;;;;;;;;4936654;29;19913;-54
2021/04/22 06:19:47;;;;;;;;;;;;;;;;;;4936529;29;19911;-57
2021/04/22 06:22:12;;;;;;;;;;;;;;;;;;4936342;29;19917;-55
2021/04/22 06:24:38;;;;;;;;;;;;;;;;;;4936450;29;19922;-55
2021/04/22 06:27:03;;;;;;;;;;;;;;;;;;4919372;29;19925;-55
2021/04/22 06:29:28;;;;;;;;;;;;;;;;;;4936645;29;19922;-55
2021/04/22 06:31:55;;;;;;;;;;;;;;;;;;4936766;29;20013;-55
2021/04/22 06:34:20;;;;;;;;;;;;;;;;;;4933320;29;20452;-53
2021/04/22 06:36:45;;;;;;;;;;;;;;;;;;4917669;29;20043;-56
2021/04/22 06:39:11;;;;;;;;;;;;;;;;;;4916438;29;19918;-56
2021/04/22 06:41:36;;;;;;;;;;;;;;;;;;4917445;29;19915;-55
2021/04/22 06:44:01;;;;;;;;;;;;;;;;;;4917624;29;19942;-55
2021/04/22 06:46:26;;;;;;;;;;;;;;;;;;4916931;29;19918;-55
2021/04/22 06:48:52;;;;;;;;;;;;;;;;;;4900226;29;19930;-53
2021/04/22 06:51:17;;;;;;;;;;;;;;;;;;4916897;29;20401;-54
2021/04/22 06:53:42;;;;;;;;;;;;;;;;;;4917119;29;19910;-55
2021/04/22 06:56:07;;;;;;;;;;;;;;;;;;4916805;29;20018;-54
2021/04/22 06:58:33;;;;;;;;;;;;;;;;;;4934744;29;20312;-54
2021/04/22 07:00:58;;;;;;;;;;;;;;;;;;4935881;29;20279;-55
2021/04/22 07:03:23;;;;;;;;;;;;;;;;;;4935193;29;19925;-55
2021/04/22 07:05:48;;;;;;;;;;;;;;;;;;4934891;29;19923;-54
2021/04/22 07:08:14;;;;;;;;;;;;;;;;;;4935214;29;19935;-56
2021/04/22 07:10:39;;;;;;;;;;;;;;;;;;4934974;29;19918;-56
2021/04/22 07:13:04;;;;;;;;;;;;;;;;;;4925480;29;19965;-56
2021/04/22 07:15:29;;;;;;;;;;;;;;;;;;4934899;29;19993;-55
2021/04/22 07:17:55;;;;;;;;;;;;;;;;;;4935879;29;19910;-56
2021/04/22 07:20:20;;;;;;;;;;;;;;;;;;4934960;29;19910;-56
2021/04/22 07:22:45;;;;;;;;;;;;;;;;;;4935434;29;19914;-55
2021/04/22 07:25:10;;;;;;;;;;;;;;;;;;4935909;29;19907;-56
2021/04/22 07:27:36;;;;;;;;;;;;;;;;;;4946717;29;20313;-57
2021/04/22 07:30:01;;;;;;;;;;;;;;;;;;4935344;29;20375;-53
2021/04/22 07:32:26;;;;;;;;;;;;;;;;;;4938523;29;20005;-53
2021/04/22 07:34:51;;;;;;;;;;;;;;;;;;4937597;29;19911;-52
2021/04/22 07:37:17;;;;;;;;;;;;;;;;;;4936423;29;19911;-55
2021/04/22 07:39:43;;;;;;;;;;;;;;;;;;4935295;29;19910;-52
2021/04/22 07:42:08;;;;;;;;;;;;;;;;;;4936377;29;20439;-54
2021/04/22 07:44:33;;;;;;;;;;;;;;;;;;4936879;29;20401;-53
2021/04/22 07:46:59;;;;;;;;;;;;;;;;;;4937612;29;19948;-54
2021/04/22 07:49:24;;;;;;;;;;;;;;;;;;4936620;29;20002;-51
2021/04/22 07:51:49;;;;;;;;;;;;;;;;;;4935386;29;19911;-54
2021/04/22 07:54:15;;;;;;;;;;;;;;;;;;4934724;29;19911;-55
2021/04/22 07:56:40;;;;;;;;;;;;;;;;;;4917838;29;20339;-54
2021/04/22 07:59:05;;;;;;;;;;;;;;;;;;4917740;29;20355;-54
2021/04/22 08:01:31;;;;;;;;;;;;;;;;;;4935387;29;20323;-56
2021/04/22 08:03:56;;;;;;;;;;;;;;;;;;4936327;29;19910;-55
2021/04/22 08:06:21;;;;;;;;;;;;;;;;;;4936866;29;20009;-57
2021/04/22 08:08:46;;;;;;;;;;;;;;;;;;4934087;29;20436;-55
2021/04/22 08:11:12;;;;;;;;;;;;;;;;;;4935331;29;19918;-55
2021/04/22 08:13:37;;;;;;;;;;;;;;;;;;4932899;29;20342;-55
2021/04/22 08:16:02;;;;;;;;;;;;;;;;;;4935499;29;19911;-56
2021/04/22 08:18:28;;;;;;;;;;;;;;;;;;4935713;29;19938;-54
2021/04/22 08:20:56;;;;;;;;;;;;;;;;;;4936359;29;19910;-55
2021/04/22 08:23:21;;;;;;;;;;;;;;;;;;4935134;29;19910;-56
2021/04/22 08:25:46;;;;;;;;;;;;;;;;;;4934320;29;19929;-56
2021/04/22 08:28:12;;;;;;;;;;;;;;;;;;4934224;29;19929;-55
2021/04/22 08:30:37;;;;;;;;;;;;;;;;;;4934008;29;19936;-55
2021/04/22 08:33:02;;;;;;;;;;;;;;;;;;4933302;29;20284;-56
2021/04/22 08:35:27;;;;;;;;;;;;;;;;;;4934532;29;19910;-54
2021/04/22 08:37:53;;;;;;;;;;;;;;;;;;4934521;29;20401;-53
2021/04/22 08:40:18;;;;;;;;;;;;;;;;;;4934376;29;19910;-52
2021/04/22 08:42:43;;;;;;;;;;;;;;;;;;4932384;29;19910;-55
2021/04/22 08:45:09;;;;;;;;;;;;;;;;;;4932769;29;19911;-55
2021/04/22 08:47:34;;;;;;;;;;;;;;;;;;4932668;29;20024;-56
2021/04/22 08:49:59;;;;;;;;;;;;;;;;;;4934371;29;20042;-54
2021/04/22 08:52:24;;;;;;;;;;;;;;;;;;4934340;29;19981;-55
2021/04/22 08:54:49;;;;;;;;;;;;;;;;;;4932443;29;20005;-56
2021/04/22 08:57:15;;;;;;;;;;;;;;;;;;4933933;29;20021;-55
2021/04/22 08:59:40;;;;;;;;;;;;;;;;;;4932158;29;20049;-55
2021/04/22 09:02:05;;;;;;;;;;;;;;;;;;4930034;29;19927;-53
2021/04/22 09:04:33;;;;;;;;;;;;;;;;;;4936683;29;20013;-53
2021/04/22 09:06:58;;;;;;;;;;;;;;;;;;4937677;29;20339;-54
2021/04/22 09:09:23;;;;;;;;;;;;;;;;;;4937769;29;19918;-56
2021/04/22 09:11:48;;;;;;;;;;;;;;;;;;4935981;29;19918;-56
2021/04/22 09:14:14;;;;;;;;;;;;;;;;;;4937177;29;19917;-55
2021/04/22 09:16:39;;;;;;;;;;;;;;;;;;4936750;29;19915;-52
2021/04/22 09:19:04;;;;;;;;;;;;;;;;;;4936300;29;19954;-54
2021/04/22 09:21:29;;;;;;;;;;;;;;;;;;4937762;29;19911;-56
2021/04/22 09:23:55;;;;;;;;;;;;;;;;;;4937648;29;19911;-56
2021/04/22 09:26:20;;;;;;;;;;;;;;;;;;4936792;29;20032;-56
2021/04/22 09:28:46;;;;;;;;;;;;;;;;;;4936978;29;20009;-56
2021/04/22 09:31:12;;;;;;;;;;;;;;;;;;4941077;29;19910;-55
2021/04/22 09:33:37;;;;;;;;;;;;;;;;;;4943333;29;19990;-55
2021/04/22 09:36:02;;;;;;;;;;;;;;;;;;4937619;29;20335;-54
2021/04/22 09:38:27;;;;;;;;;;;;;;;;;;4937247;29;20358;-54
2021/04/22 09:40:53;;;;;;;;;;;;;;;;;;4936505;29;19911;-56
2021/04/22 09:43:18;;;;;;;;;;;;;;;;;;4937137;29;19954;-55
2021/04/22 09:45:43;;;;;;;;;;;;;;;;;;4937052;29;19911;-54
2021/04/22 09:48:08;;;;;;;;;;;;;;;;;;4936485;29;19919;-55
2021/04/22 09:50:34;;;;;;;;;;;;;;;;;;4935610;29;20016;-55
2021/04/22 09:52:59;;;;;;;;;;;;;;;;;;4935935;29;19911;-55
2021/04/22 09:55:24;;;;;;;;;;;;;;;;;;4937012;29;19942;-53
2021/04/22 09:57:50;;;;;;;;;;;;;;;;;;4934022;29;20410;-54
2021/04/22 10:00:15;;;;;;;;;;;;;;;;;;4935791;29;19918;-56
2021/04/22 10:02:40;;;;;;;;;;;;;;;;;;4936105;29;20304;-56
2021/04/22 10:05:06;;;;;;;;;;;;;;;;;;4936629;29;20319;-53
2021/04/22 10:07:32;;;;;;;;;;;;;;;;;;4936393;29;20345;-56
2021/04/22 10:09:58;;;;;;;;;;;;;;;;;;4936383;29;19911;-57
2021/04/22 10:12:23;;;;;;;;;;;;;;;;;;4950558;29;20389;-55
2021/04/22 10:14:48;;;;;;;;;;;;;;;;;;4935705;29;19971;-56
2021/04/22 10:17:14;;;;;;;;;;;;;;;;;;4936260;29;19910;-54
2021/04/22 10:19:39;;;;;;;;;;;;;;;;;;4936605;29;20219;-54
2021/04/22 10:22:04;;;;;;;;;;;;;;;;;;4936737;29;19918;-57
2021/04/22 10:24:29;;;;;;;;;;;;;;;;;;4919121;29;19910;-55
2021/04/22 10:26:54;;;;;;;;;;;;;;;;;;4935146;29;19918;-55
2021/04/22 10:29:20;;;;;;;;;;;;;;;;;;4951299;29;19949;-56
2021/04/22 10:31:45;;;;;;;;;;;;;;;;;;4934603;29;20319;-56
2021/04/22 10:34:10;;;;;;;;;;;;;;;;;;4919175;29;20276;-56
2021/04/22 10:36:37;;;;;;;;;;;;;;;;;;4935894;29;19917;-54
2021/04/22 10:39:03;;;;;;;;;;;;;;;;;;4934890;29;19914;-56
2021/04/22 10:41:28;;;;;;;;;;;;;;;;;;4918454;29;19910;-55
2021/04/22 10:43:53;;;;;;;;;;;;;;;;;;4935718;29;20046;-55
2021/04/22 10:46:19;;;;;;;;;;;;;;;;;;4935511;29;19938;-56
2021/04/22 10:48:45;;;;;;;;;;;;;;;;;;4935145;29;20364;-55
2021/04/22 10:51:10;;;;;;;;;;;;;;;;;;4935856;29;19918;-56
2021/04/22 10:53:35;;;;;;;;;;;;;;;;;;4934397;29;19910;-55
2021/04/22 10:56:00;;;;;;;;;;;;;;;;;;4935253;29;19934;-57
2021/04/22 10:58:26;;;;;;;;;;;;;;;;;;4933954;29;19910;-56
2021/04/22 11:00:51;;;;;;;;;;;;;;;;;;4935250;29;19910;-56
2021/04/22 11:03:16;;;;;;;;;;;;;;;;;;4935437;29;20386;-56
2021/04/22 11:05:41;;;;;;;;;;;;;;;;;;4934244;29;19910;-57
2021/04/22 11:08:06;;;;;;;;;;;;;;;;;;4934500;29;19973;-55
2021/04/22 11:10:32;;;;;;;;;;;;;;;;;;4931100;29;19967;-56
2021/04/22 11:12:57;;;;;;;;;;;;;;;;;;4916411;29;19938;-56
2021/04/22 11:15:22;;;;;;;;;;;;;;;;;;4916479;29;19918;-56
2021/04/22 11:17:47;;;;;;;;;;;;;;;;;;4930912;29;19911;-56
2021/04/22 11:20:13;;;;;;;;;;;;;;;;;;4916110;29;19922;-56
2021/04/22 11:22:38;;;;;;;;;;;;;;;;;;4928405;29;19907;-57
2021/04/22 11:25:03;;;;;;;;;;;;;;;;;;4934976;29;19967;-57
2021/04/22 11:27:28;;;;;;;;;;;;;;;;;;4933291;29;19961;-57
2021/04/22 11:29:54;;;;;;;;;;;;;;;;;;4934331;29;20391;-57
2021/04/22 11:32:19;;;;;;;;;;;;;;;;;;4934914;29;19921;-55
2021/04/22 11:34:44;;;;;;;;;;;;;;;;;;4934072;29;19934;-55
2021/04/22 11:37:09;;;;;;;;;;;;;;;;;;4934627;29;20012;-56
2021/04/22 11:39:35;;;;;;;;;;;;;;;;;;4933569;29;20353;-56
2021/04/22 11:42:01;;;;;;;;;;;;;;;;;;4934442;29;19982;-56
2021/04/22 11:44:27;;;;;;;;;;;;;;;;;;4934595;29;19954;-56
2021/04/22 11:46:52;;;;;;;;;;;;;;;;;;4934532;29;19987;-57
2021/04/22 11:49:17;;;;;;;;;;;;;;;;;;4935068;29;19911;-58
2021/04/22 11:51:42;;;;;;;;;;;;;;;;;;4934419;29;19911;-54
2021/04/22 11:54:07;;;;;;;;;;;;;;;;;;4934285;29;19917;-56
2021/04/22 11:56:33;;;;;;;;;;;;;;;;;;4933950;29;19965;-55
2021/04/22 11:58:58;;;;;;;;;;;;;;;;;;4934358;29;20013;-57
2021/04/22 12:01:23;;;;;;;;;;;;;;;;;;4933300;29;20013;-56
2021/04/22 12:03:48;;;;;;;;;;;;;;;;;;4934465;29;19911;-54
2021/04/22 12:06:14;;;;;;;;;;;;;;;;;;4934718;29;19910;-56
2021/04/22 12:08:39;;;;;;;;;;;;;;;;;;4934158;29;19918;-57
2021/04/22 12:11:05;;;;;;;;;;;;;;;;;;4933785;29;19918;-59
2021/04/22 12:13:33;;;;;;;;;;;;;;;;;;4934740;29;19919;-56
2021/04/22 12:15:58;;;;;;;;;;;;;;;;;;4934376;29;19921;-56
2021/04/22 12:18:23;;;;;;;;;;;;;;;;;;4934621;29;20291;-57
2021/04/22 12:20:48;;;;;;;;;;;;;;;;;;4933030;29;20367;-55
2021/04/22 12:23:14;;;;;;;;;;;;;;;;;;4935165;29;19997;-56
2021/04/22 12:25:39;;;;;;;;;;;;;;;;;;4948583;29;20308;-57
2021/04/22 12:28:06;;;;;;;;;;;;;;;;;;4932969;29;19919;-55
2021/04/22 12:30:31;;;;;;;;;;;;;;;;;;4934588;29;19910;-56
2021/04/22 12:32:56;;;;;;;;;;;;;;;;;;4933723;29;19982;-54
2021/04/22 12:35:21;;;;;;;;;;;;;;;;;;4934363;29;20344;-55
2021/04/22 12:37:47;;;;;;;;;;;;;;;;;;4936440;29;19974;-54
2021/04/22 12:40:12;;;;;;;;;;;;;;;;;;4937938;29;20363;-55
2021/04/22 12:42:37;;;;;;;;;;;;;;;;;;4937888;29;20001;-55
2021/04/22 12:45:02;;;;;;;;;;;;;;;;;;4937879;29;19964;-55
2021/04/22 12:47:28;;;;;;;;;;;;;;;;;;4936544;29;20328;-56
2021/04/22 12:49:54;;;;;;;;;;;;;;;;;;4952304;29;19911;-55
2021/04/22 12:52:20;;;;;;;;;;;;;;;;;;4938062;29;19918;-54
2021/04/22 12:54:45;;;;;;;;;;;;;;;;;;4937660;29;19911;-56
2021/04/22 12:57:10;;;;;;;;;;;;;;;;;;4937970;29;20381;-56
2021/04/22 12:59:36;;;;;;;;;;;;;;;;;;4938422;29;20287;-54
2021/04/22 13:02:01;;;;;;;;;;;;;;;;;;4936002;29;20018;-53
2021/04/22 13:04:26;;;;;;;;;;;;;;;;;;4937320;29;20319;-56
2021/04/22 13:06:51;;;;;;;;;;;;;;;;;;4935481;29;19919;-56
2021/04/22 13:09:18;;;;;;;;;;;;;;;;;;4937275;29;20383;-53
2021/04/22 13:11:44;;;;;;;;;;;;;;;;;;4936914;29;19985;-54
2021/04/22 13:14:09;;;;;;;;;;;;;;;;;;4937241;29;20354;-55
2021/04/22 13:16:34;;;;;;;;;;;;;;;;;;4937378;29;19984;-54
2021/04/22 13:19:00;;;;;;;;;;;;;;;;;;4937628;29;19918;-54
2021/04/22 13:21:25;;;;;;;;;;;;;;;;;;4937121;29;20260;-54
2021/04/22 13:23:50;;;;;;;;;;;;;;;;;;4937209;29;19934;-55
2021/04/22 13:26:16;;;;;;;;;;;;;;;;;;4937035;29;20256;-54
2021/04/22 13:28:41;;;;;;;;;;;;;;;;;;4935993;29;19911;-54
2021/04/22 13:31:06;;;;;;;;;;;;;;;;;;4936838;29;20291;-55
2021/04/22 13:33:31;;;;;;;;;;;;;;;;;;4937321;29;19910;-56
2021/04/22 13:35:56;;;;;;;;;;;;;;;;;;4954325;29;19942;-55
2021/04/22 13:38:22;;;;;;;;;;;;;;;;;;4939792;29;19919;-55
2021/04/22 13:40:47;;;;;;;;;;;;;;;;;;4938819;29;19911;-57
2021/04/22 13:43:12;;;;;;;;;;;;;;;;;;4936229;29;19911;-53
2021/04/22 13:45:38;;;;;;;;;;;;;;;;;;4936935;29;19950;-53
2021/04/22 13:48:03;;;;;;;;;;;;;;;;;;4948873;28;19942;-55
2021/04/22 13:50:28;;;;;;;;;;;;;;;;;;4920133;29;19911;-55
2021/04/22 13:52:53;;;;;;;;;;;;;;;;;;4919297;29;19954;-55
2021/04/22 13:55:18;;;;;;;;;;;;;;;;;;4920620;29;19922;-57
2021/04/22 13:57:44;;;;;;;;;;;;;;;;;;4919434;29;19919;-56
2021/04/22 14:00:09;;;;;;;;;;;;;;;;;;4916579;29;19922;-58
2021/04/22 14:02:37;;;;;;;;;;;;;;;;;;4918599;29;20085;-57
2021/04/22 14:05:03;;;;;;;;;;;;;;;;;;4917161;29;19962;-56
2021/04/22 14:07:28;;;;;;;;;;;;;;;;;;4918659;29;19910;-56
2021/04/22 14:09:55;;;;;;;;;;;;;;;;;;4917702;29;19918;-55
2021/04/22 14:12:20;;;;;;;;;;;;;;;;;;4917904;29;19919;-55
2021/04/22 14:14:45;;;;;;;;;;;;;;;;;;4917967;29;19933;-56
2021/04/22 14:17:10;;;;;;;;;;;;;;;;;;4917130;29;19938;-57
2021/04/22 14:19:36;;;;;;;;;;;;;;;;;;4916292;29;19915;-56
2021/04/22 14:22:01;;;;;;;;;;;;;;;;;;4916813;29;20315;-55
2021/04/22 14:24:26;;;;;;;;;;;;;;;;;;4917090;29;20400;-55
2021/04/22 14:26:51;;;;;;;;;;;;;;;;;;4916784;29;20009;-55
2021/04/22 14:29:17;;;;;;;;;;;;;;;;;;4917414;29;19915;-57
2021/04/22 14:31:42;;;;;;;;;;;;;;;;;;4917373;29;19933;-54
2021/04/22 14:34:08;;;;;;;;;;;;;;;;;;4914812;29;19981;-56
2021/04/22 14:36:33;;;;;;;;;;;;;;;;;;4916774;29;19911;-55
2021/04/22 14:38:58;;;;;;;;;;;;;;;;;;4919534;29;20005;-56
2021/04/22 14:41:23;;;;;;;;;;;;;;;;;;4935495;29;19910;-56
2021/04/22 14:43:49;;;;;;;;;;;;;;;;;;4935528;29;20006;-56
2021/04/22 14:46:14;;;;;;;;;;;;;;;;;;4933904;29;20331;-56
2021/04/22 14:48:39;;;;;;;;;;;;;;;;;;4933545;29;19917;-57
2021/04/22 14:51:04;;;;;;;;;;;;;;;;;;4935260;29;19911;-57
2021/04/22 14:53:29;;;;;;;;;;;;;;;;;;4934377;29;20005;-57
2021/04/22 14:55:55;;;;;;;;;;;;;;;;;;4933772;29;19985;-57
2021/04/22 14:58:20;;;;;;;;;;;;;;;;;;4935354;29;20017;-58
2021/04/22 15:00:45;;;;;;;;;;;;;;;;;;4934267;29;20271;-58
2021/04/22 15:03:11;;;;;;;;;;;;;;;;;;4935388;29;20705;-58
2021/04/22 15:05:36;;;;;;;;;;;;;;;;;;4935750;29;19911;-55
2021/04/22 15:08:01;;;;;;;;;;;;;;;;;;4935606;29;19926;-55
2021/04/22 15:10:27;;;;;;;;;;;;;;;;;;4935976;29;20387;-57
2021/04/22 15:12:52;;;;;;;;;;;;;;;;;;4936224;29;19935;-55
2021/04/22 15:15:17;;;;;;;;;;;;;;;;;;4935302;29;19921;-55
2021/04/22 15:17:42;;;;;;;;;;;;;;;;;;4934701;29;19925;-57
2021/04/22 15:20:08;;;;;;;;;;;;;;;;;;4933789;29;19930;-54
2021/04/22 15:22:33;;;;;;;;;;;;;;;;;;4918031;29;19945;-56
2021/04/22 15:24:58;;;;;;;;;;;;;;;;;;4934792;29;19911;-54
2021/04/22 15:27:23;;;;;;;;;;;;;;;;;;4935008;29;20304;-55
2021/04/22 15:29:49;;;;;;;;;;;;;;;;;;4935141;29;20371;-56
2021/04/22 15:32:14;;;;;;;;;;;;;;;;;;4933774;29;20017;-57
2021/04/22 15:34:39;;;;;;;;;;;;;;;;;;4933375;29;19929;-57
2021/04/22 15:37:04;;;;;;;;;;;;;;;;;;4932061;29;20345;-56
2021/04/22 15:39:29;;;;;;;;;;;;;;;;;;4933551;29;20040;-56
2021/04/22 15:41:55;;;;;;;;;;;;;;;;;;4932660;29;19906;-57
2021/04/22 15:44:20;;;;;;;;;;;;;;;;;;4933690;29;19911;-56
2021/04/22 15:46:45;;;;;;;;;;;;;;;;;;4933036;29;19910;-57
2021/04/22 15:49:10;;;;;;;;;;;;;;;;;;4933809;29;19910;-56
2021/04/22 15:51:36;;;;;;;;;;;;;;;;;;4934742;29;20397;-58
2021/04/22 15:54:03;;;;;;;;;;;;;;;;;;4933760;29;20367;-54
2021/04/22 15:56:28;;;;;;;;;;;;;;;;;;4934993;29;19945;-54
2021/04/22 15:58:53;;;;;;;;;;;;;;;;;;4933068;29;20045;-54
2021/04/22 16:01:19;;;;;;;;;;;;;;;;;;4933638;29;19911;-57
2021/04/22 16:03:44;;;;;;;;;;;;;;;;;;4932953;29;20308;-56
2021/04/22 16:06:09;;;;;;;;;;;;;;;;;;4934888;29;19911;-58
2021/04/22 16:08:35;;;;;;;;;;;;;;;;;;4935207;29;19910;-57
2021/04/22 16:11:00;;;;;;;;;;;;;;;;;;4934885;29;19911;-58
2021/04/22 16:13:25;;;;;;;;;;;;;;;;;;4939642;29;19927;-58
2021/04/22 16:15:50;;;;;;;;;;;;;;;;;;4941046;29;19910;-55
2021/04/22 16:18:15;;;;;;;;;;;;;;;;;;4938349;29;20746;-57
2021/04/22 16:20:41;;;;;;;;;;;;;;;;;;4941119;29;19993;-53
2021/04/22 16:23:06;;;;;;;;;;;;;;;;;;4939185;29;19914;-56
2021/04/22 16:25:31;;;;;;;;;;;;;;;;;;4940078;29;19910;-57
2021/04/22 16:27:58;;;;;;;;;;;;;;;;;;4941087;29;19929;-53
2021/04/22 16:30:24;;;;;;;;;;;;;;;;;;4940995;29;19911;-55
2021/04/22 16:32:49;;;;;;;;;;;;;;;;;;4940183;29;19929;-55